sensor_id;sensor_type;location;lat;lon;timestamp;P1;durP1;ratioP1;P2;durP2;ratioP2
83143;SDS011;73035;43.768;2.230;2023-11-18T00:00:17;23.02;;;10.73;;
83143;SDS011;73035;43.768;2.230;2023-11-18T00:02:43;8.00;;;4.95;;
83143;SDS011;73035;43.768;2.230;2023-11-18T00:05:09;7.47;;;3.83;;
83143;SDS011;73035;43.768;2.230;2023-11-18T00:07:35;7.57;;;4.60;;
83143;SDS011;73035;43.768;2.230;2023-11-18T00:10:00;30.30;;;19.02;;
83143;SDS011;73035;43.768;2.230;2023-11-18T00:12:26;104.85;;;56.17;;
83143;SDS011;73035;43.768;2.230;2023-11-18T00:14:52;87.32;;;52.38;;
83143;SDS011;73035;43.768;2.230;2023-11-18T00:17:17;32.97;;;18.30;;
83143;SDS011;73035;43.768;2.230;2023-11-18T00:19:43;14.73;;;8.35;;
83143;SDS011;73035;43.768;2.230;2023-11-18T00:22:09;17.50;;;9.75;;
83143;SDS011;73035;43.768;2.230;2023-11-18T00:24:36;13.75;;;9.30;;
83143;SDS011;73035;43.768;2.230;2023-11-18T00:27:01;14.25;;;8.63;;
83143;SDS011;73035;43.768;2.230;2023-11-18T00:29:34;10.25;;;6.50;;
83143;SDS011;73035;43.768;2.230;2023-11-18T00:32:00;7.38;;;3.90;;
83143;SDS011;73035;43.768;2.230;2023-11-18T00:34:26;7.60;;;3.78;;
83143;SDS011;73035;43.768;2.230;2023-11-18T00:36:51;8.77;;;3.85;;
83143;SDS011;73035;43.768;2.230;2023-11-18T00:39:17;6.13;;;3.15;;
83143;SDS011;73035;43.768;2.230;2023-11-18T00:41:42;6.30;;;3.40;;
83143;SDS011;73035;43.768;2.230;2023-11-18T00:44:08;5.80;;;2.83;;
83143;SDS011;73035;43.768;2.230;2023-11-18T00:46:34;4.43;;;3.10;;
83143;SDS011;73035;43.768;2.230;2023-11-18T00:49:01;6.35;;;3.25;;
83143;SDS011;73035;43.768;2.230;2023-11-18T00:51:27;7.68;;;3.88;;
83143;SDS011;73035;43.768;2.230;2023-11-18T00:53:53;6.88;;;3.40;;
83143;SDS011;73035;43.768;2.230;2023-11-18T00:56:19;7.80;;;4.05;;
83143;SDS011;73035;43.768;2.230;2023-11-18T00:58:46;10.75;;;3.72;;
83143;SDS011;73035;43.768;2.230;2023-11-18T01:01:12;6.40;;;4.18;;
83143;SDS011;73035;43.768;2.230;2023-11-18T01:03:37;5.80;;;3.55;;
83143;SDS011;73035;43.768;2.230;2023-11-18T01:06:03;6.32;;;3.67;;
83143;SDS011;73035;43.768;2.230;2023-11-18T01:08:31;7.03;;;3.58;;
83143;SDS011;73035;43.768;2.230;2023-11-18T01:10:56;5.25;;;2.95;;
83143;SDS011;73035;43.768;2.230;2023-11-18T01:13:21;5.07;;;2.97;;
83143;SDS011;73035;43.768;2.230;2023-11-18T01:15:48;5.00;;;2.95;;
83143;SDS011;73035;43.768;2.230;2023-11-18T01:18:13;4.82;;;2.60;;
83143;SDS011;73035;43.768;2.230;2023-11-18T01:20:39;5.53;;;3.15;;
83143;SDS011;73035;43.768;2.230;2023-11-18T01:23:04;7.60;;;3.25;;
83143;SDS011;73035;43.768;2.230;2023-11-18T01:25:29;5.18;;;3.00;;
83143;SDS011;73035;43.768;2.230;2023-11-18T01:27:55;5.03;;;2.50;;
83143;SDS011;73035;43.768;2.230;2023-11-18T01:30:20;6.20;;;3.10;;
83143;SDS011;73035;43.768;2.230;2023-11-18T01:32:45;5.20;;;2.70;;
83143;SDS011;73035;43.768;2.230;2023-11-18T01:35:11;5.18;;;3.20;;
83143;SDS011;73035;43.768;2.230;2023-11-18T01:40:02;4.85;;;2.70;;
83143;SDS011;73035;43.768;2.230;2023-11-18T01:42:32;4.95;;;4.18;;
83143;SDS011;73035;43.768;2.230;2023-11-18T01:47:24;3.70;;;2.28;;
83143;SDS011;73035;43.768;2.230;2023-11-18T01:49:51;5.60;;;3.05;;
83143;SDS011;73035;43.768;2.230;2023-11-18T01:54:43;4.13;;;2.30;;
83143;SDS011;73035;43.768;2.230;2023-11-18T01:57:09;4.35;;;2.47;;
83143;SDS011;73035;43.768;2.230;2023-11-18T01:59:35;3.72;;;2.20;;
83143;SDS011;73035;43.768;2.230;2023-11-18T02:02:03;3.83;;;2.20;;
83143;SDS011;73035;43.768;2.230;2023-11-18T02:04:28;4.70;;;2.22;;
83143;SDS011;73035;43.768;2.230;2023-11-18T02:06:54;4.97;;;2.65;;
83143;SDS011;73035;43.768;2.230;2023-11-18T02:09:21;6.22;;;2.70;;
83143;SDS011;73035;43.768;2.230;2023-11-18T02:14:21;7.40;;;2.38;;
83143;SDS011;73035;43.768;2.230;2023-11-18T02:16:49;4.68;;;2.20;;
83143;SDS011;73035;43.768;2.230;2023-11-18T02:19:21;5.93;;;2.30;;
83143;SDS011;73035;43.768;2.230;2023-11-18T02:21:49;3.20;;;1.90;;
83143;SDS011;73035;43.768;2.230;2023-11-18T02:24:31;3.15;;;2.17;;
83143;SDS011;73035;43.768;2.230;2023-11-18T02:27:01;3.53;;;2.30;;
83143;SDS011;73035;43.768;2.230;2023-11-18T02:29:27;5.13;;;3.13;;
83143;SDS011;73035;43.768;2.230;2023-11-18T02:31:57;5.47;;;2.70;;
83143;SDS011;73035;43.768;2.230;2023-11-18T02:34:27;3.30;;;2.40;;
83143;SDS011;73035;43.768;2.230;2023-11-18T02:36:56;5.75;;;2.05;;
83143;SDS011;73035;43.768;2.230;2023-11-18T02:39:35;3.15;;;1.67;;
83143;SDS011;73035;43.768;2.230;2023-11-18T02:42:07;4.50;;;2.00;;
83143;SDS011;73035;43.768;2.230;2023-11-18T02:44:37;4.20;;;2.17;;
83143;SDS011;73035;43.768;2.230;2023-11-18T02:47:02;5.35;;;2.60;;
83143;SDS011;73035;43.768;2.230;2023-11-18T02:49:30;4.07;;;2.40;;
83143;SDS011;73035;43.768;2.230;2023-11-18T02:51:55;4.90;;;2.22;;
83143;SDS011;73035;43.768;2.230;2023-11-18T02:54:21;3.88;;;1.90;;
83143;SDS011;73035;43.768;2.230;2023-11-18T02:56:46;4.45;;;2.35;;
83143;SDS011;73035;43.768;2.230;2023-11-18T02:59:12;3.05;;;1.90;;
83143;SDS011;73035;43.768;2.230;2023-11-18T03:01:38;4.15;;;2.03;;
83143;SDS011;73035;43.768;2.230;2023-11-18T03:04:06;5.60;;;1.80;;
83143;SDS011;73035;43.768;2.230;2023-11-18T03:06:32;4.57;;;2.28;;
83143;SDS011;73035;43.768;2.230;2023-11-18T03:08:57;4.72;;;2.33;;
83143;SDS011;73035;43.768;2.230;2023-11-18T03:11:23;4.00;;;1.90;;
83143;SDS011;73035;43.768;2.230;2023-11-18T03:13:48;4.10;;;1.67;;
83143;SDS011;73035;43.768;2.230;2023-11-18T03:16:14;3.40;;;2.40;;
83143;SDS011;73035;43.768;2.230;2023-11-18T03:18:40;2.75;;;2.13;;
83143;SDS011;73035;43.768;2.230;2023-11-18T03:23:40;6.10;;;2.15;;
83143;SDS011;73035;43.768;2.230;2023-11-18T03:28:38;3.67;;;1.70;;
83143;SDS011;73035;43.768;2.230;2023-11-18T03:31:03;3.60;;;2.00;;
83143;SDS011;73035;43.768;2.230;2023-11-18T03:33:32;20.98;;;6.22;;
83143;SDS011;73035;43.768;2.230;2023-11-18T03:35:57;27.15;;;13.38;;
83143;SDS011;73035;43.768;2.230;2023-11-18T03:38:23;41.00;;;18.83;;
83143;SDS011;73035;43.768;2.230;2023-11-18T03:40:49;19.08;;;8.25;;
83143;SDS011;73035;43.768;2.230;2023-11-18T03:43:15;6.28;;;2.90;;
83143;SDS011;73035;43.768;2.230;2023-11-18T03:45:40;7.53;;;2.35;;
83143;SDS011;73035;43.768;2.230;2023-11-18T03:48:06;5.80;;;2.70;;
83143;SDS011;73035;43.768;2.230;2023-11-18T03:50:32;4.50;;;2.40;;
83143;SDS011;73035;43.768;2.230;2023-11-18T03:52:58;6.95;;;2.95;;
83143;SDS011;73035;43.768;2.230;2023-11-18T03:55:24;7.50;;;2.65;;
83143;SDS011;73035;43.768;2.230;2023-11-18T03:57:51;5.50;;;2.50;;
83143;SDS011;73035;43.768;2.230;2023-11-18T04:00:17;4.75;;;3.08;;
83143;SDS011;73035;43.768;2.230;2023-11-18T04:02:42;2.90;;;1.65;;
83143;SDS011;73035;43.768;2.230;2023-11-18T04:05:08;4.07;;;1.38;;
83143;SDS011;73035;43.768;2.230;2023-11-18T04:07:34;2.67;;;1.65;;
83143;SDS011;73035;43.768;2.230;2023-11-18T04:09:59;4.18;;;2.05;;
83143;SDS011;73035;43.768;2.230;2023-11-18T04:12:25;4.32;;;2.50;;
83143;SDS011;73035;43.768;2.230;2023-11-18T04:14:52;6.03;;;2.55;;
83143;SDS011;73035;43.768;2.230;2023-11-18T04:17:17;4.13;;;2.70;;
83143;SDS011;73035;43.768;2.230;2023-11-18T04:19:42;5.32;;;3.00;;
83143;SDS011;73035;43.768;2.230;2023-11-18T04:22:08;7.38;;;3.15;;
83143;SDS011;73035;43.768;2.230;2023-11-18T04:24:34;8.77;;;3.35;;
83143;SDS011;73035;43.768;2.230;2023-11-18T04:27:00;6.47;;;3.55;;
83143;SDS011;73035;43.768;2.230;2023-11-18T04:29:27;3.17;;;1.77;;
83143;SDS011;73035;43.768;2.230;2023-11-18T04:31:52;3.20;;;1.95;;
83143;SDS011;73035;43.768;2.230;2023-11-18T04:34:18;3.70;;;1.73;;
83143;SDS011;73035;43.768;2.230;2023-11-18T04:36:44;4.50;;;1.50;;
83143;SDS011;73035;43.768;2.230;2023-11-18T04:39:09;3.05;;;1.55;;
83143;SDS011;73035;43.768;2.230;2023-11-18T04:41:36;3.85;;;1.77;;
83143;SDS011;73035;43.768;2.230;2023-11-18T04:44:02;3.00;;;1.88;;
83143;SDS011;73035;43.768;2.230;2023-11-18T04:46:28;2.78;;;1.75;;
83143;SDS011;73035;43.768;2.230;2023-11-18T04:48:53;3.63;;;1.83;;
83143;SDS011;73035;43.768;2.230;2023-11-18T04:53:46;4.75;;;2.58;;
83143;SDS011;73035;43.768;2.230;2023-11-18T04:56:11;7.03;;;3.25;;
83143;SDS011;73035;43.768;2.230;2023-11-18T04:58:38;8.13;;;3.05;;
83143;SDS011;73035;43.768;2.230;2023-11-18T05:01:04;6.22;;;2.97;;
83143;SDS011;73035;43.768;2.230;2023-11-18T05:03:30;4.60;;;2.33;;
83143;SDS011;73035;43.768;2.230;2023-11-18T05:05:55;3.72;;;2.10;;
83143;SDS011;73035;43.768;2.230;2023-11-18T05:08:21;5.85;;;2.83;;
83143;SDS011;73035;43.768;2.230;2023-11-18T05:10:50;3.13;;;1.90;;
83143;SDS011;73035;43.768;2.230;2023-11-18T05:13:15;5.25;;;2.03;;
83143;SDS011;73035;43.768;2.230;2023-11-18T05:18:10;5.15;;;2.40;;
83143;SDS011;73035;43.768;2.230;2023-11-18T05:20:39;4.88;;;3.40;;
83143;SDS011;73035;43.768;2.230;2023-11-18T05:23:04;4.63;;;1.70;;
83143;SDS011;73035;43.768;2.230;2023-11-18T05:25:30;4.85;;;2.33;;
83143;SDS011;73035;43.768;2.230;2023-11-18T05:27:57;7.15;;;3.35;;
83143;SDS011;73035;43.768;2.230;2023-11-18T05:30:22;5.25;;;2.38;;
83143;SDS011;73035;43.768;2.230;2023-11-18T05:32:48;4.25;;;1.92;;
83143;SDS011;73035;43.768;2.230;2023-11-18T05:35:13;6.03;;;3.05;;
83143;SDS011;73035;43.768;2.230;2023-11-18T05:37:39;4.80;;;2.72;;
83143;SDS011;73035;43.768;2.230;2023-11-18T05:40:06;3.28;;;2.53;;
83143;SDS011;73035;43.768;2.230;2023-11-18T05:42:35;3.35;;;1.88;;
83143;SDS011;73035;43.768;2.230;2023-11-18T05:45:02;3.63;;;1.98;;
83143;SDS011;73035;43.768;2.230;2023-11-18T05:47:29;5.15;;;3.28;;
83143;SDS011;73035;43.768;2.230;2023-11-18T05:49:54;4.90;;;3.05;;
83143;SDS011;73035;43.768;2.230;2023-11-18T05:52:20;3.17;;;1.80;;
83143;SDS011;73035;43.768;2.230;2023-11-18T05:54:46;4.35;;;2.30;;
83143;SDS011;73035;43.768;2.230;2023-11-18T05:57:15;4.82;;;2.10;;
83143;SDS011;73035;43.768;2.230;2023-11-18T05:59:41;4.63;;;2.03;;
83143;SDS011;73035;43.768;2.230;2023-11-18T06:02:07;6.38;;;2.33;;
83143;SDS011;73035;43.768;2.230;2023-11-18T06:04:33;8.85;;;4.10;;
83143;SDS011;73035;43.768;2.230;2023-11-18T06:06:58;6.68;;;3.47;;
83143;SDS011;73035;43.768;2.230;2023-11-18T06:09:24;5.72;;;2.60;;
83143;SDS011;73035;43.768;2.230;2023-11-18T06:11:53;3.00;;;2.05;;
83143;SDS011;73035;43.768;2.230;2023-11-18T06:14:19;4.70;;;2.40;;
83143;SDS011;73035;43.768;2.230;2023-11-18T06:19:12;13.20;;;8.63;;
83143;SDS011;73035;43.768;2.230;2023-11-18T06:21:38;6.40;;;4.38;;
83143;SDS011;73035;43.768;2.230;2023-11-18T06:24:04;8.23;;;2.90;;
83143;SDS011;73035;43.768;2.230;2023-11-18T06:26:30;3.50;;;2.90;;
83143;SDS011;73035;43.768;2.230;2023-11-18T06:28:56;3.75;;;2.47;;
83143;SDS011;73035;43.768;2.230;2023-11-18T06:31:22;3.45;;;2.47;;
83143;SDS011;73035;43.768;2.230;2023-11-18T06:33:49;3.63;;;2.60;;
83143;SDS011;73035;43.768;2.230;2023-11-18T06:38:41;9.65;;;4.78;;
83143;SDS011;73035;43.768;2.230;2023-11-18T06:41:08;8.20;;;4.70;;
83143;SDS011;73035;43.768;2.230;2023-11-18T06:43:37;10.30;;;5.05;;
83143;SDS011;73035;43.768;2.230;2023-11-18T06:53:46;3.65;;;2.35;;
83143;SDS011;73035;43.768;2.230;2023-11-18T06:56:11;3.83;;;1.85;;
83143;SDS011;73035;43.768;2.230;2023-11-18T06:58:38;88.05;;;13.07;;
83143;SDS011;73035;43.768;2.230;2023-11-18T07:01:04;11.63;;;4.75;;
83143;SDS011;73035;43.768;2.230;2023-11-18T07:03:30;4.07;;;1.92;;
83143;SDS011;73035;43.768;2.230;2023-11-18T07:05:56;3.03;;;1.77;;
83143;SDS011;73035;43.768;2.230;2023-11-18T07:08:22;18.60;;;5.00;;
83143;SDS011;73035;43.768;2.230;2023-11-18T07:10:47;18.85;;;4.00;;
83143;SDS011;73035;43.768;2.230;2023-11-18T07:13:13;19.35;;;4.88;;
83143;SDS011;73035;43.768;2.230;2023-11-18T07:15:39;10.55;;;3.13;;
83143;SDS011;73035;43.768;2.230;2023-11-18T07:18:04;12.02;;;3.13;;
83143;SDS011;73035;43.768;2.230;2023-11-18T07:20:31;8.23;;;2.20;;
83143;SDS011;73035;43.768;2.230;2023-11-18T07:22:57;6.55;;;2.35;;
83143;SDS011;73035;43.768;2.230;2023-11-18T07:25:23;3.75;;;2.00;;
83143;SDS011;73035;43.768;2.230;2023-11-18T07:27:48;7.13;;;2.63;;
83143;SDS011;73035;43.768;2.230;2023-11-18T07:30:14;9.90;;;4.28;;
83143;SDS011;73035;43.768;2.230;2023-11-18T07:32:39;14.27;;;9.98;;
83143;SDS011;73035;43.768;2.230;2023-11-18T07:35:05;8.82;;;6.55;;
83143;SDS011;73035;43.768;2.230;2023-11-18T07:37:33;9.90;;;3.67;;
83143;SDS011;73035;43.768;2.230;2023-11-18T07:39:59;4.35;;;2.25;;
83143;SDS011;73035;43.768;2.230;2023-11-18T07:42:26;3.30;;;2.20;;
83143;SDS011;73035;43.768;2.230;2023-11-18T07:44:51;2.63;;;1.77;;
83143;SDS011;73035;43.768;2.230;2023-11-18T07:47:17;5.85;;;2.13;;
83143;SDS011;73035;43.768;2.230;2023-11-18T07:49:44;6.53;;;2.70;;
83143;SDS011;73035;43.768;2.230;2023-11-18T07:52:10;6.07;;;3.17;;
83143;SDS011;73035;43.768;2.230;2023-11-18T07:54:36;5.35;;;2.25;;
83143;SDS011;73035;43.768;2.230;2023-11-18T07:57:01;5.68;;;2.90;;
83143;SDS011;73035;43.768;2.230;2023-11-18T07:59:29;4.50;;;2.00;;
83143;SDS011;73035;43.768;2.230;2023-11-18T08:01:54;6.55;;;3.70;;
83143;SDS011;73035;43.768;2.230;2023-11-18T08:04:21;9.07;;;4.60;;
83143;SDS011;73035;43.768;2.230;2023-11-18T08:06:46;8.27;;;6.97;;
83143;SDS011;73035;43.768;2.230;2023-11-18T08:09:12;6.53;;;5.10;;
83143;SDS011;73035;43.768;2.230;2023-11-18T08:11:38;5.07;;;3.20;;
83143;SDS011;73035;43.768;2.230;2023-11-18T08:14:06;3.42;;;2.70;;
83143;SDS011;73035;43.768;2.230;2023-11-18T08:16:33;3.35;;;1.90;;
83143;SDS011;73035;43.768;2.230;2023-11-18T08:18:58;16.52;;;4.38;;
83143;SDS011;73035;43.768;2.230;2023-11-18T08:21:24;6.75;;;3.67;;
83143;SDS011;73035;43.768;2.230;2023-11-18T08:23:49;6.88;;;2.65;;
83143;SDS011;73035;43.768;2.230;2023-11-18T08:26:15;4.85;;;2.83;;
83143;SDS011;73035;43.768;2.230;2023-11-18T08:28:40;5.15;;;3.38;;
83143;SDS011;73035;43.768;2.230;2023-11-18T08:31:08;5.43;;;3.00;;
83143;SDS011;73035;43.768;2.230;2023-11-18T08:35:59;5.47;;;3.70;;
83143;SDS011;73035;43.768;2.230;2023-11-18T08:38:26;8.07;;;4.72;;
83143;SDS011;73035;43.768;2.230;2023-11-18T08:40:53;7.60;;;5.15;;
83143;SDS011;73035;43.768;2.230;2023-11-18T08:43:18;6.75;;;2.90;;
83143;SDS011;73035;43.768;2.230;2023-11-18T08:45:45;5.95;;;3.15;;
83143;SDS011;73035;43.768;2.230;2023-11-18T08:50:36;7.33;;;3.77;;
83143;SDS011;73035;43.768;2.230;2023-11-18T08:53:04;6.25;;;3.50;;
83143;SDS011;73035;43.768;2.230;2023-11-18T08:55:31;6.22;;;3.00;;
83143;SDS011;73035;43.768;2.230;2023-11-18T08:58:06;7.78;;;3.30;;
83143;SDS011;73035;43.768;2.230;2023-11-18T09:00:46;3.92;;;3.33;;
83143;SDS011;73035;43.768;2.230;2023-11-18T09:03:16;6.50;;;3.00;;
83143;SDS011;73035;43.768;2.230;2023-11-18T09:06:00;4.00;;;2.65;;
83143;SDS011;73035;43.768;2.230;2023-11-18T09:08:42;6.32;;;2.97;;
83143;SDS011;73035;43.768;2.230;2023-11-18T09:11:08;6.90;;;3.17;;
83143;SDS011;73035;43.768;2.230;2023-11-18T09:13:42;6.55;;;4.07;;
83143;SDS011;73035;43.768;2.230;2023-11-18T09:16:09;9.55;;;5.53;;
83143;SDS011;73035;43.768;2.230;2023-11-18T09:18:36;9.38;;;6.25;;
83143;SDS011;73035;43.768;2.230;2023-11-18T09:21:04;13.52;;;7.10;;
83143;SDS011;73035;43.768;2.230;2023-11-18T09:23:31;15.43;;;8.82;;
83143;SDS011;73035;43.768;2.230;2023-11-18T09:25:59;100.65;;;67.10;;
83143;SDS011;73035;43.768;2.230;2023-11-18T09:28:26;66.90;;;31.90;;
83143;SDS011;73035;43.768;2.230;2023-11-18T09:30:55;16.42;;;9.98;;
83143;SDS011;73035;43.768;2.230;2023-11-18T09:33:23;11.95;;;6.65;;
83143;SDS011;73035;43.768;2.230;2023-11-18T09:35:59;10.45;;;5.90;;
83143;SDS011;73035;43.768;2.230;2023-11-18T09:38:28;9.82;;;5.53;;
83143;SDS011;73035;43.768;2.230;2023-11-18T09:40:54;14.20;;;6.28;;
83143;SDS011;73035;43.768;2.230;2023-11-18T09:43:20;14.15;;;7.60;;
83143;SDS011;73035;43.768;2.230;2023-11-18T09:45:56;12.07;;;4.95;;
83143;SDS011;73035;43.768;2.230;2023-11-18T09:48:29;9.23;;;4.03;;
83143;SDS011;73035;43.768;2.230;2023-11-18T09:50:54;8.82;;;4.72;;
83143;SDS011;73035;43.768;2.230;2023-11-18T09:53:22;6.72;;;4.35;;
83143;SDS011;73035;43.768;2.230;2023-11-18T09:55:59;11.48;;;5.15;;
83143;SDS011;73035;43.768;2.230;2023-11-18T09:58:32;5.03;;;3.08;;
83143;SDS011;73035;43.768;2.230;2023-11-18T10:01:06;11.43;;;4.55;;
83143;SDS011;73035;43.768;2.230;2023-11-18T10:03:32;6.32;;;4.15;;
83143;SDS011;73035;43.768;2.230;2023-11-18T10:06:01;4.75;;;2.65;;
83143;SDS011;73035;43.768;2.230;2023-11-18T10:08:30;5.22;;;2.58;;
83143;SDS011;73035;43.768;2.230;2023-11-18T10:10:56;3.60;;;1.98;;
83143;SDS011;73035;43.768;2.230;2023-11-18T10:13:30;4.43;;;2.10;;
83143;SDS011;73035;43.768;2.230;2023-11-18T10:15:59;2.95;;;1.70;;
83143;SDS011;73035;43.768;2.230;2023-11-18T10:18:24;5.03;;;2.10;;
83143;SDS011;73035;43.768;2.230;2023-11-18T10:20:51;2.95;;;1.63;;
83143;SDS011;73035;43.768;2.230;2023-11-18T10:23:17;2.75;;;1.67;;
83143;SDS011;73035;43.768;2.230;2023-11-18T10:25:52;3.05;;;1.50;;
83143;SDS011;73035;43.768;2.230;2023-11-18T10:30:48;4.55;;;2.00;;
83143;SDS011;73035;43.768;2.230;2023-11-18T10:33:14;10.98;;;2.20;;
83143;SDS011;73035;43.768;2.230;2023-11-18T10:35:48;2.97;;;1.65;;
83143;SDS011;73035;43.768;2.230;2023-11-18T10:38:16;4.43;;;1.63;;
83143;SDS011;73035;43.768;2.230;2023-11-18T10:40:42;4.03;;;1.85;;
83143;SDS011;73035;43.768;2.230;2023-11-18T10:43:09;3.53;;;1.60;;
83143;SDS011;73035;43.768;2.230;2023-11-18T10:45:35;2.80;;;1.50;;
83143;SDS011;73035;43.768;2.230;2023-11-18T10:48:07;4.65;;;1.73;;
83143;SDS011;73035;43.768;2.230;2023-11-18T10:50:33;2.10;;;1.30;;
83143;SDS011;73035;43.768;2.230;2023-11-18T10:53:01;2.40;;;1.52;;
83143;SDS011;73035;43.768;2.230;2023-11-18T10:55:39;3.83;;;1.20;;
83143;SDS011;73035;43.768;2.230;2023-11-18T10:58:05;6.53;;;1.48;;
83143;SDS011;73035;43.768;2.230;2023-11-18T11:03:20;2.53;;;1.10;;
83143;SDS011;73035;43.768;2.230;2023-11-18T11:05:48;4.00;;;1.27;;
83143;SDS011;73035;43.768;2.230;2023-11-18T11:08:14;3.78;;;1.23;;
83143;SDS011;73035;43.768;2.230;2023-11-18T11:10:41;2.35;;;1.10;;
83143;SDS011;73035;43.768;2.230;2023-11-18T11:13:07;3.10;;;1.20;;
83143;SDS011;73035;43.768;2.230;2023-11-18T11:15:33;2.22;;;1.33;;
83143;SDS011;73035;43.768;2.230;2023-11-18T11:18:05;3.13;;;1.20;;
83143;SDS011;73035;43.768;2.230;2023-11-18T11:20:37;2.72;;;1.33;;
83143;SDS011;73035;43.768;2.230;2023-11-18T11:23:16;3.65;;;1.10;;
83143;SDS011;73035;43.768;2.230;2023-11-18T11:28:40;5.40;;;1.77;;
83143;SDS011;73035;43.768;2.230;2023-11-18T11:31:48;5.93;;;1.50;;
83143;SDS011;73035;43.768;2.230;2023-11-18T11:34:22;4.63;;;1.50;;
83143;SDS011;73035;43.768;2.230;2023-11-18T11:36:51;2.47;;;1.30;;
83143;SDS011;73035;43.768;2.230;2023-11-18T11:39:17;4.20;;;1.73;;
83143;SDS011;73035;43.768;2.230;2023-11-18T11:41:50;2.55;;;1.00;;
83143;SDS011;73035;43.768;2.230;2023-11-18T11:44:17;3.35;;;1.38;;
83143;SDS011;73035;43.768;2.230;2023-11-18T11:46:46;2.25;;;1.02;;
83143;SDS011;73035;43.768;2.230;2023-11-18T11:49:18;1.90;;;1.35;;
83143;SDS011;73035;43.768;2.230;2023-11-18T11:54:31;2.35;;;1.05;;
83143;SDS011;73035;43.768;2.230;2023-11-18T11:57:05;2.70;;;1.60;;
83143;SDS011;73035;43.768;2.230;2023-11-18T11:59:34;2.53;;;1.48;;
83143;SDS011;73035;43.768;2.230;2023-11-18T12:02:11;3.78;;;1.33;;
83143;SDS011;73035;43.768;2.230;2023-11-18T12:04:43;4.47;;;1.30;;
83143;SDS011;73035;43.768;2.230;2023-11-18T12:07:09;6.68;;;2.60;;
83143;SDS011;73035;43.768;2.230;2023-11-18T12:09:38;3.45;;;1.58;;
83143;SDS011;73035;43.768;2.230;2023-11-18T12:12:06;4.10;;;1.65;;
83143;SDS011;73035;43.768;2.230;2023-11-18T12:14:50;5.57;;;4.10;;
83143;SDS011;73035;43.768;2.230;2023-11-18T12:17:17;5.70;;;2.45;;
83143;SDS011;73035;43.768;2.230;2023-11-18T12:22:19;6.30;;;3.92;;
83143;SDS011;73035;43.768;2.230;2023-11-18T12:30:49;10.27;;;3.47;;
83143;SDS011;73035;43.768;2.230;2023-11-18T12:40:52;11.15;;;7.10;;
83143;SDS011;73035;43.768;2.230;2023-11-18T12:46:07;8.43;;;2.67;;
83143;SDS011;73035;43.768;2.230;2023-11-18T12:48:44;4.72;;;2.42;;
83143;SDS011;73035;43.768;2.230;2023-11-18T12:51:13;6.85;;;3.97;;
83143;SDS011;73035;43.768;2.230;2023-11-18T12:53:50;5.13;;;2.47;;
83143;SDS011;73035;43.768;2.230;2023-11-18T12:56:18;7.57;;;3.55;;
83143;SDS011;73035;43.768;2.230;2023-11-18T12:58:47;63.15;;;10.52;;
83143;SDS011;73035;43.768;2.230;2023-11-18T13:01:13;14.32;;;3.72;;
83143;SDS011;73035;43.768;2.230;2023-11-18T13:03:41;10.60;;;3.80;;
83143;SDS011;73035;43.768;2.230;2023-11-18T13:06:11;7.35;;;5.03;;
83143;SDS011;73035;43.768;2.230;2023-11-18T13:08:40;5.97;;;3.47;;
83143;SDS011;73035;43.768;2.230;2023-11-18T13:11:06;5.28;;;3.15;;
83143;SDS011;73035;43.768;2.230;2023-11-18T13:13:40;5.22;;;3.00;;
83143;SDS011;73035;43.768;2.230;2023-11-18T13:16:06;4.68;;;2.88;;
83143;SDS011;73035;43.768;2.230;2023-11-18T13:18:42;4.22;;;2.03;;
83143;SDS011;73035;43.768;2.230;2023-11-18T13:21:12;5.07;;;2.47;;
83143;SDS011;73035;43.768;2.230;2023-11-18T13:23:38;4.72;;;1.80;;
83143;SDS011;73035;43.768;2.230;2023-11-18T13:26:04;3.88;;;1.83;;
83143;SDS011;73035;43.768;2.230;2023-11-18T13:28:31;3.28;;;1.90;;
83143;SDS011;73035;43.768;2.230;2023-11-18T13:30:57;5.47;;;1.65;;
83143;SDS011;73035;43.768;2.230;2023-11-18T13:33:22;5.20;;;1.70;;
83143;SDS011;73035;43.768;2.230;2023-11-18T13:35:48;2.85;;;1.75;;
83143;SDS011;73035;43.768;2.230;2023-11-18T13:38:14;3.40;;;2.05;;
83143;SDS011;73035;43.768;2.230;2023-11-18T13:40:43;4.35;;;2.20;;
83143;SDS011;73035;43.768;2.230;2023-11-18T13:43:14;7.50;;;3.65;;
83143;SDS011;73035;43.768;2.230;2023-11-18T13:45:40;3.17;;;2.00;;
83143;SDS011;73035;43.768;2.230;2023-11-18T13:48:07;3.88;;;2.13;;
83143;SDS011;73035;43.768;2.230;2023-11-18T13:50:34;5.32;;;3.25;;
83143;SDS011;73035;43.768;2.230;2023-11-18T13:53:02;9.38;;;5.75;;
83143;SDS011;73035;43.768;2.230;2023-11-18T13:55:28;6.85;;;2.42;;
83143;SDS011;73035;43.768;2.230;2023-11-18T13:57:56;4.75;;;2.10;;
83143;SDS011;73035;43.768;2.230;2023-11-18T14:00:26;6.20;;;2.85;;
83143;SDS011;73035;43.768;2.230;2023-11-18T14:02:55;3.83;;;1.90;;
83143;SDS011;73035;43.768;2.230;2023-11-18T14:05:24;4.80;;;2.35;;
83143;SDS011;73035;43.768;2.230;2023-11-18T14:07:51;3.15;;;1.58;;
83143;SDS011;73035;43.768;2.230;2023-11-18T14:10:20;2.85;;;1.30;;
83143;SDS011;73035;43.768;2.230;2023-11-18T14:13:01;4.57;;;1.92;;
83143;SDS011;73035;43.768;2.230;2023-11-18T14:15:31;4.57;;;1.50;;
83143;SDS011;73035;43.768;2.230;2023-11-18T14:18:00;2.92;;;1.48;;
83143;SDS011;73035;43.768;2.230;2023-11-18T14:20:26;3.40;;;1.75;;
83143;SDS011;73035;43.768;2.230;2023-11-18T14:22:51;2.80;;;1.55;;
83143;SDS011;73035;43.768;2.230;2023-11-18T14:25:17;5.95;;;1.70;;
83143;SDS011;73035;43.768;2.230;2023-11-18T14:27:42;3.22;;;1.90;;
83143;SDS011;73035;43.768;2.230;2023-11-18T14:30:08;3.33;;;1.30;;
83143;SDS011;73035;43.768;2.230;2023-11-18T14:32:34;3.15;;;1.45;;
83143;SDS011;73035;43.768;2.230;2023-11-18T14:35:00;2.00;;;1.02;;
83143;SDS011;73035;43.768;2.230;2023-11-18T14:37:25;3.17;;;1.92;;
83143;SDS011;73035;43.768;2.230;2023-11-18T14:39:51;4.63;;;2.30;;
83143;SDS011;73035;43.768;2.230;2023-11-18T14:42:17;3.60;;;2.08;;
83143;SDS011;73035;43.768;2.230;2023-11-18T14:44:46;4.05;;;2.40;;
83143;SDS011;73035;43.768;2.230;2023-11-18T14:47:11;4.47;;;1.98;;
83143;SDS011;73035;43.768;2.230;2023-11-18T14:49:37;3.72;;;1.98;;
83143;SDS011;73035;43.768;2.230;2023-11-18T14:52:02;4.88;;;2.10;;
83143;SDS011;73035;43.768;2.230;2023-11-18T14:54:27;6.28;;;2.72;;
83143;SDS011;73035;43.768;2.230;2023-11-18T14:56:55;7.10;;;3.13;;
83143;SDS011;73035;43.768;2.230;2023-11-18T14:59:20;8.30;;;4.13;;
83143;SDS011;73035;43.768;2.230;2023-11-18T15:01:47;8.70;;;3.75;;
83143;SDS011;73035;43.768;2.230;2023-11-18T15:04:13;5.43;;;2.88;;
83143;SDS011;73035;43.768;2.230;2023-11-18T15:06:38;3.70;;;2.25;;
83143;SDS011;73035;43.768;2.230;2023-11-18T15:09:04;6.55;;;2.13;;
83143;SDS011;73035;43.768;2.230;2023-11-18T15:11:30;3.67;;;1.98;;
83143;SDS011;73035;43.768;2.230;2023-11-18T15:13:58;4.13;;;2.22;;
83143;SDS011;73035;43.768;2.230;2023-11-18T15:16:24;6.28;;;2.47;;
83143;SDS011;73035;43.768;2.230;2023-11-18T15:18:49;3.38;;;2.15;;
83143;SDS011;73035;43.768;2.230;2023-11-18T15:21:17;3.40;;;1.88;;
83143;SDS011;73035;43.768;2.230;2023-11-18T15:23:43;3.72;;;2.40;;
83143;SDS011;73035;43.768;2.230;2023-11-18T15:26:09;4.00;;;1.95;;
83143;SDS011;73035;43.768;2.230;2023-11-18T15:28:34;3.47;;;1.80;;
83143;SDS011;73035;43.768;2.230;2023-11-18T15:31:01;3.47;;;2.05;;
83143;SDS011;73035;43.768;2.230;2023-11-18T15:33:28;4.18;;;2.35;;
83143;SDS011;73035;43.768;2.230;2023-11-18T15:35:53;3.90;;;2.13;;
83143;SDS011;73035;43.768;2.230;2023-11-18T15:38:19;3.75;;;2.20;;
83143;SDS011;73035;43.768;2.230;2023-11-18T15:40:45;6.47;;;2.42;;
83143;SDS011;73035;43.768;2.230;2023-11-18T15:43:12;4.03;;;2.30;;
83143;SDS011;73035;43.768;2.230;2023-11-18T15:45:38;2.92;;;2.17;;
83143;SDS011;73035;43.768;2.230;2023-11-18T15:48:04;6.38;;;2.33;;
83143;SDS011;73035;43.768;2.230;2023-11-18T15:50:30;4.63;;;1.90;;
83143;SDS011;73035;43.768;2.230;2023-11-18T15:52:56;5.07;;;2.33;;